^^
Saratoga-Weather Station Historical Data
Daily Summary for October 27, 2021 Units:  Both    English   Metric
Daily Weekly Monthly Yearly Custom
  High: Low: Average:
Temperature: 57 °F /  13.9 °C 46.2 °F /  7.9 °C 50.4 °F /  10.2 °C
Dew Point: 52.3 °F /  11.3 °C 44.8 °F /  7.1 °C 48.4 °F /  9.1 °C
Humidity: 97% 83% 93%
Wind Speed: 4.9mph /  7.9km/h - 0.4mph /  0.7km/h
Wind Gust: 5mph /  8km/h - -
Wind- - ESE
Pressure: 30.3 in /  1026.1 hPa 30.2 in /  1022.0 hPa -
Precipitation: 0 in /  0.0 mm    
Historical Graphs
 
 
Tabular Data for October 27, 2021
Time Temperature Dew Point Pressure Wind Wind Speed Wind Gust Humidity Rainfall Rate (Hourly) solar
00:00 50 °F /  10 °C 48.6 °F /  9.2 °C 30.3in /  1025.1hPa East 2mph /  3.2km/h 4mph /  6.4km/h 95% 0in /  0.0mm 0 W/m2
00:05 50.2 °F /  10.1 °C 48.7 °F /  9.3 °C 30.3in /  1025.1hPa NE 0.9mph /  1.4km/h 3mph /  4.8km/h 95% 0in /  0.0mm 0 W/m2
00:10 50.2 °F /  10.1 °C 48.7 °F /  9.3 °C 30.3in /  1025.1hPa ESE 2mph /  3.2km/h 3mph /  4.8km/h 95% 0in /  0.0mm 0 W/m2
00:15 50.2 °F /  10.1 °C 48.7 °F /  9.3 °C 30.3in /  1025.1hPa Calm   1mph /  1.6km/h 95% 0in /  0.0mm 0 W/m2
00:20 50 °F /  10 °C 48.6 °F /  9.2 °C 30.3in /  1025.1hPa Calm     95% 0in /  0.0mm 0 W/m2
00:25 49.8 °F /  9.9 °C 48.4 °F /  9.1 °C 30.3in /  1025.1hPa Calm     95% 0in /  0.0mm 0 W/m2
00:30 49.8 °F /  9.9 °C 48.4 °F /  9.1 °C 30.3in /  1025.1hPa Calm     95% 0in /  0.0mm 0 W/m2
00:35 49.8 °F /  9.9 °C 48.4 °F /  9.1 °C 30.3in /  1025.1hPa Calm     95% 0in /  0.0mm 0 W/m2
00:40 49.8 °F /  9.9 °C 48.4 °F /  9.1 °C 30.3in /  1025.1hPa Calm     95% 0in /  0.0mm 0 W/m2
00:45 50 °F /  10 °C 48.6 °F /  9.2 °C 30.3in /  1025.1hPa Calm   2mph /  3.2km/h 95% 0in /  0.0mm 0 W/m2
00:50 50.2 °F /  10.1 °C 48.7 °F /  9.3 °C 30.3in /  1025.1hPa Calm   3mph /  4.8km/h 95% 0in /  0.0mm 0 W/m2
00:55 50.2 °F /  10.1 °C 49.1 °F /  9.5 °C 30.3in /  1025.1hPa West 2mph /  3.2km/h 2mph /  3.2km/h 96% 0in /  0.0mm 0 W/m2
01:00 50.4 °F /  10.2 °C 48.9 °F /  9.4 °C 30.3in /  1025.1hPa Calm     95% 0in /  0.0mm 0 W/m2
01:05 50.4 °F /  10.2 °C 48.9 °F /  9.4 °C 30.3in /  1025.1hPa Calm   3mph /  4.8km/h 95% 0in /  0.0mm 0 W/m2
01:10 50.4 °F /  10.2 °C 48.9 °F /  9.4 °C 30.3in /  1025.1hPa Calm     95% 0in /  0.0mm 0 W/m2
01:15 50.4 °F /  10.2 °C 48.9 °F /  9.4 °C 30.3in /  1025.1hPa Calm   4mph /  6.4km/h 95% 0in /  0.0mm 0 W/m2
01:20 50.5 °F /  10.3 °C 49.1 °F /  9.5 °C 30.3in /  1025.1hPa Calm     95% 0in /  0.0mm 0 W/m2
01:25 50.5 °F /  10.3 °C 49.1 °F /  9.5 °C 30.3in /  1025.1hPa NW 2.9mph /  4.7km/h 4mph /  6.4km/h 95% 0in /  0.0mm 0 W/m2
01:30 50.5 °F /  10.3 °C 49.1 °F /  9.5 °C 30.3in /  1025.1hPa West 4mph /  6.4km/h 4mph /  6.4km/h 95% 0in /  0.0mm 0 W/m2
01:35 50.7 °F /  10.4 °C 49.3 °F /  9.6 °C 30.3in /  1025.1hPa Calm   3mph /  4.8km/h 95% 0in /  0.0mm 0 W/m2
01:40 50.9 °F /  10.5 °C 49.5 °F /  9.7 °C 30.3in /  1025.1hPa WSW 4.9mph /  7.9km/h 5mph /  8km/h 95% 0in /  0.0mm 0 W/m2
01:45 51.1 °F /  10.6 °C 49.6 °F /  9.8 °C 30.3in /  1025.1hPa Calm   2mph /  3.2km/h 95% 0in /  0.0mm 0 W/m2
01:50 51.3 °F /  10.7 °C 49.8 °F /  9.9 °C 30.3in /  1025.1hPa West 2mph /  3.2km/h 3mph /  4.8km/h 95% 0in /  0.0mm 0 W/m2
01:55 51.4 °F /  10.8 °C 49.8 °F /  9.9 °C 30.3in /  1025.1hPa SW 0.9mph /  1.4km/h 3mph /  4.8km/h 94% 0in /  0.0mm 0 W/m2
02:01 51.4 °F /  10.8 °C 49.8 °F /  9.9 °C 30.3in /  1025.1hPa SW 2.9mph /  4.7km/h 4mph /  6.4km/h 94% 0in /  0.0mm 0 W/m2
02:06 51.6 °F /  10.9 °C 50 °F /  10 °C 30.3in /  1025.1hPa Calm   2mph /  3.2km/h 94% 0in /  0.0mm 0 W/m2
02:11 51.6 °F /  10.9 °C 49.6 °F /  9.8 °C 30.3in /  1025.1hPa Calm   4mph /  6.4km/h 93% 0in /  0.0mm 0 W/m2
02:16 51.6 °F /  10.9 °C 49.6 °F /  9.8 °C 30.3in /  1025.1hPa Calm     93% 0in /  0.0mm 0 W/m2
02:21 51.4 °F /  10.8 °C 49.5 °F /  9.7 °C 30.3in /  1025.1hPa SW 0.9mph /  1.4km/h 1mph /  1.6km/h 93% 0in /  0.0mm 0 W/m2
02:26 51.4 °F /  10.8 °C 49.5 °F /  9.7 °C 30.3in /  1025.1hPa SW 0.9mph /  1.4km/h 2mph /  3.2km/h 93% 0in /  0.0mm 0 W/m2
02:31 51.3 °F /  10.7 °C 49.3 °F /  9.6 °C 30.3in /  1025.1hPa Calm     93% 0in /  0.0mm 0 W/m2
02:36 51.1 °F /  10.6 °C 49.1 °F /  9.5 °C 30.3in /  1025.1hPa Calm   2mph /  3.2km/h 93% 0in /  0.0mm 0 W/m2
02:41 50.7 °F /  10.4 °C 48.6 °F /  9.2 °C 30.3in /  1025.1hPa Calm     92% 0in /  0.0mm 0 W/m2
02:46 50.4 °F /  10.2 °C 48.2 °F /  9 °C 30.3in /  1025.1hPa Calm   1mph /  1.6km/h 92% 0in /  0.0mm 0 W/m2
02:51 50 °F /  10 °C 47.8 °F /  8.8 °C 30.3in /  1025.1hPa Calm     92% 0in /  0.0mm 0 W/m2
02:56 49.6 °F /  9.8 °C 47.5 °F /  8.6 °C 30.3in /  1025.1hPa Calm     92% 0in /  0.0mm 0 W/m2
03:01 49.5 °F /  9.7 °C 47.5 °F /  8.6 °C 30.3in /  1025.1hPa Calm     93% 0in /  0.0mm 0 W/m2
03:06 49.5 °F /  9.7 °C 47.5 °F /  8.6 °C 30.3in /  1025.1hPa Calm   3mph /  4.8km/h 93% 0in /  0.0mm 0 W/m2
03:11 49.5 °F /  9.7 °C 47.8 °F /  8.8 °C 30.3in /  1025.1hPa Calm   2mph /  3.2km/h 94% 0in /  0.0mm 0 W/m2
03:16 49.5 °F /  9.7 °C 47.8 °F /  8.8 °C 30.3in /  1025.1hPa Calm   2mph /  3.2km/h 94% 0in /  0.0mm 0 W/m2
03:21 49.5 °F /  9.7 °C 47.8 °F /  8.8 °C 30.3in /  1025.1hPa NNW 2mph /  3.2km/h 2mph /  3.2km/h 94% 0in /  0.0mm 0 W/m2
03:26 49.5 °F /  9.7 °C 47.8 °F /  8.8 °C 30.3in /  1025.1hPa Calm     94% 0in /  0.0mm 0 W/m2
03:31 49.5 °F /  9.7 °C 47.8 °F /  8.8 °C 30.3in /  1025.1hPa Calm     94% 0in /  0.0mm 0 W/m2
03:36 49.5 °F /  9.7 °C 47.8 °F /  8.8 °C 30.3in /  1025.1hPa Calm     94% 0in /  0.0mm 0 W/m2
03:41 49.3 °F /  9.6 °C 47.7 °F /  8.7 °C 30.3in /  1025.1hPa Calm   1mph /  1.6km/h 94% 0in /  0.0mm 0 W/m2
03:46 49.3 °F /  9.6 °C 47.7 °F /  8.7 °C 30.3in /  1025.1hPa Calm     94% 0in /  0.0mm 0 W/m2
03:51 49.1 °F /  9.5 °C 47.5 °F /  8.6 °C 30.3in /  1025.1hPa Calm     94% 0in /  0.0mm 0 W/m2
03:56 48.9 °F /  9.4 °C 47.3 °F /  8.5 °C 30.3in /  1024.7hPa Calm     94% 0in /  0.0mm 0 W/m2
04:01 48.7 °F /  9.3 °C 47.1 °F /  8.4 °C 30.3in /  1024.7hPa Calm     94% 0in /  0.0mm 0 W/m2
04:06 48.6 °F /  9.2 °C 46.9 °F /  8.3 °C 30.3in /  1024.7hPa Calm     94% 0in /  0.0mm 0 W/m2
04:11 48.4 °F /  9.1 °C 46.8 °F /  8.2 °C 30.3in /  1024.7hPa Calm     94% 0in /  0.0mm 0 W/m2
04:16 48 °F /  8.9 °C 46.4 °F /  8 °C 30.3in /  1024.7hPa Calm     94% 0in /  0.0mm 0 W/m2
04:21 47.8 °F /  8.8 °C 46.2 °F /  7.9 °C 30.3in /  1024.7hPa Calm     94% 0in /  0.0mm 0 W/m2
04:26 47.5 °F /  8.6 °C 45.9 °F /  7.7 °C 30.3in /  1024.7hPa Calm     94% 0in /  0.0mm 0 W/m2
04:31 47.5 °F /  8.6 °C 45.9 °F /  7.7 °C 30.3in /  1024.7hPa Calm     94% 0in /  0.0mm 0 W/m2
04:36 47.1 °F /  8.4 °C 45.7 °F /  7.6 °C 30.3in /  1024.7hPa Calm     95% 0in /  0.0mm 0 W/m2
04:41 47.1 °F /  8.4 °C 45.7 °F /  7.6 °C 30.3in /  1024.7hPa Calm     95% 0in /  0.0mm 0 W/m2
04:46 46.9 °F /  8.3 °C 45.5 °F /  7.5 °C 30.3in /  1024.7hPa Calm     95% 0in /  0.0mm 0 W/m2
04:51 46.9 °F /  8.3 °C 45.5 °F /  7.5 °C 30.3in /  1024.7hPa Calm     95% 0in /  0.0mm 0 W/m2
04:56 46.9 °F /  8.3 °C 45.5 °F /  7.5 °C 30.3in /  1024.7hPa Calm     95% 0in /  0.0mm 0 W/m2
05:01 46.9 °F /  8.3 °C 45.5 °F /  7.5 °C 30.3in /  1024.7hPa Calm     95% 0in /  0.0mm 0 W/m2
05:06 46.9 °F /  8.3 °C 45.5 °F /  7.5 °C 30.3in /  1024.7hPa Calm     95% 0in /  0.0mm 0 W/m2
05:11 46.8 °F /  8.2 °C 45.3 °F /  7.4 °C 30.3in /  1024.7hPa Calm     95% 0in /  0.0mm 0 W/m2
05:16 46.8 °F /  8.2 °C 45.3 °F /  7.4 °C 30.3in /  1024.7hPa Calm     95% 0in /  0.0mm 0 W/m2
05:21 46.8 °F /  8.2 °C 45.3 °F /  7.4 °C 30.3in /  1024.7hPa Calm     95% 0in /  0.0mm 0 W/m2
05:27 46.6 °F /  8.1 °C 45.1 °F /  7.3 °C 30.3in /  1024.7hPa Calm     95% 0in /  0.0mm 0 W/m2
05:32 46.6 °F /  8.1 °C 45.1 °F /  7.3 °C 30.3in /  1024.7hPa Calm     95% 0in /  0.0mm 0 W/m2
05:37 46.6 °F /  8.1 °C 45.1 °F /  7.3 °C 30.3in /  1024.7hPa Calm     95% 0in /  0.0mm 0 W/m2
05:42 46.4 °F /  8 °C 45 °F /  7.2 °C 30.3in /  1024.7hPa Calm     95% 0in /  0.0mm 0 W/m2
05:47 46.2 °F /  7.9 °C 44.8 °F /  7.1 °C 30.3in /  1024.7hPa Calm     95% 0in /  0.0mm 0 W/m2
05:52 46.2 °F /  7.9 °C 44.8 °F /  7.1 °C 30.3in /  1025.1hPa Calm     95% 0in /  0.0mm 0 W/m2
05:57 46.2 °F /  7.9 °C 45.1 °F /  7.3 °C 30.3in /  1025.1hPa Calm     96% 0in /  0.0mm 0 W/m2
06:02 46.4 °F /  8 °C 45.3 °F /  7.4 °C 30.3in /  1025.1hPa Calm   2mph /  3.2km/h 96% 0in /  0.0mm 0 W/m2
06:07 46.6 °F /  8.1 °C 45.5 °F /  7.5 °C 30.3in /  1025.1hPa Calm     96% 0in /  0.0mm 0 W/m2
06:12 46.6 °F /  8.1 °C 45.5 °F /  7.5 °C 30.3in /  1025.1hPa Calm   2mph /  3.2km/h 96% 0in /  0.0mm 0 W/m2
06:17 46.9 °F /  8.3 °C 45.9 °F /  7.7 °C 30.3in /  1025.1hPa Calm     96% 0in /  0.0mm 0 W/m2
06:22 46.9 °F /  8.3 °C 45.9 °F /  7.7 °C 30.3in /  1025.1hPa Calm     96% 0in /  0.0mm 0 W/m2
06:27 47.1 °F /  8.4 °C 46 °F /  7.8 °C 30.3in /  1025.1hPa Calm     96% 0in /  0.0mm 0 W/m2
06:32 47.3 °F /  8.5 °C 46.2 °F /  7.9 °C 30.3in /  1025.1hPa Calm     96% 0in /  0.0mm 0 W/m2
06:37 47.5 °F /  8.6 °C 46.4 °F /  8 °C 30.3in /  1025.1hPa Calm     96% 0in /  0.0mm 0 W/m2
06:42 47.5 °F /  8.6 °C 46.4 °F /  8 °C 30.3in /  1025.1hPa Calm     96% 0in /  0.0mm 0 W/m2
06:47 47.7 °F /  8.7 °C 46.6 °F /  8.1 °C 30.3in /  1025.1hPa Calm     96% 0in /  0.0mm 0 W/m2
06:52 47.7 °F /  8.7 °C 46.6 °F /  8.1 °C 30.3in /  1025.1hPa Calm     96% 0in /  0.0mm 0 W/m2
06:57 47.7 °F /  8.7 °C 46.6 °F /  8.1 °C 30.3in /  1025.1hPa Calm     96% 0in /  0.0mm 0 W/m2
07:02 47.7 °F /  8.7 °C 46.6 °F /  8.1 °C 30.3in /  1025.1hPa Calm     96% 0in /  0.0mm 0 W/m2
07:07 47.5 °F /  8.6 °C 46.4 °F /  8 °C 30.3in /  1025.1hPa Calm     96% 0in /  0.0mm 0 W/m2
07:12 47.5 °F /  8.6 °C 46.4 °F /  8 °C 30.3in /  1025.1hPa Calm     96% 0in /  0.0mm 0 W/m2
07:17 47.5 °F /  8.6 °C 46.4 °F /  8 °C 30.3in /  1025.1hPa Calm     96% 0in /  0.0mm 0 W/m2
07:22 47.5 °F /  8.6 °C 46.4 °F /  8 °C 30.3in /  1025.1hPa Calm     96% 0in /  0.0mm 0 W/m2
07:27 47.5 °F /  8.6 °C 46.4 °F /  8 °C 30.3in /  1025.1hPa Calm     96% 0in /  0.0mm 0 W/m2
07:32 47.5 °F /  8.6 °C 46.4 °F /  8 °C 30.3in /  1025.1hPa ENE 0.9mph /  1.4km/h 2mph /  3.2km/h 96% 0in /  0.0mm 0 W/m2
07:37 47.7 °F /  8.7 °C 46.9 °F /  8.3 °C 30.3in /  1025.1hPa Calm     97% 0in /  0.0mm 0 W/m2
07:42 47.7 °F /  8.7 °C 46.9 °F /  8.3 °C 30.3in /  1025.1hPa Calm   2mph /  3.2km/h 97% 0in /  0.0mm 0 W/m2
07:47 47.7 °F /  8.7 °C 46.9 °F /  8.3 °C 30.3in /  1025.1hPa Calm     97% 0in /  0.0mm 0 W/m2
07:52 47.7 °F /  8.7 °C 46.9 °F /  8.3 °C 30.3in /  1025.1hPa Calm     97% 0in /  0.0mm 0 W/m2
07:57 47.7 °F /  8.7 °C 46.9 °F /  8.3 °C 30.3in /  1025.1hPa Calm   1mph /  1.6km/h 97% 0in /  0.0mm 0 W/m2
08:02 47.8 °F /  8.8 °C 46.9 °F /  8.3 °C 30.3in /  1025.1hPa ENE 2mph /  3.2km/h 2mph /  3.2km/h 97% 0in /  0.0mm 0 W/m2
08:07 47.8 °F /  8.8 °C 46.9 °F /  8.3 °C 30.3in /  1025.1hPa Calm     97% 0in /  0.0mm 0 W/m2
08:12 47.8 °F /  8.8 °C 46.9 °F /  8.3 °C 30.3in /  1025.1hPa Calm     97% 0in /  0.0mm 0 W/m2
08:17 47.8 °F /  8.8 °C 46.9 °F /  8.3 °C 30.3in /  1025.4hPa Calm     97% 0in /  0.0mm 0 W/m2
08:22 47.8 °F /  8.8 °C 46.8 °F /  8.2 °C 30.3in /  1025.4hPa Calm     96% 0in /  0.0mm 0 W/m2
08:27 47.8 °F /  8.8 °C 46.8 °F /  8.2 °C 30.3in /  1025.1hPa Calm     96% 0in /  0.0mm 0 W/m2
08:32 47.8 °F /  8.8 °C 46.8 °F /  8.2 °C 30.3in /  1025.1hPa Calm     96% 0in /  0.0mm 5 W/m2
08:37 48 °F /  8.9 °C 47.1 °F /  8.4 °C 30.3in /  1025.1hPa Calm     97% 0in /  0.0mm 7 W/m2
08:42 48.2 °F /  9 °C 47.3 °F /  8.5 °C 30.3in /  1025.1hPa Calm   1mph /  1.6km/h 97% 0in /  0.0mm 9 W/m2
08:47 48.4 °F /  9.1 °C 47.5 °F /  8.6 °C 30.3in /  1025.1hPa Calm     97% 0in /  0.0mm 11 W/m2
08:52 48.6 °F /  9.2 °C 47.7 °F /  8.7 °C 30.3in /  1025.4hPa Calm   1mph /  1.6km/h 97% 0in /  0.0mm 12 W/m2
08:57 48.6 °F /  9.2 °C 47.7 °F /  8.7 °C 30.3in /  1025.4hPa East 2mph /  3.2km/h 3mph /  4.8km/h 97% 0in /  0.0mm 14 W/m2
09:02 48.4 °F /  9.1 °C 47.5 °F /  8.6 °C 30.3in /  1025.4hPa Calm   1mph /  1.6km/h 97% 0in /  0.0mm 16 W/m2
09:07 48.4 °F /  9.1 °C 47.5 °F /  8.6 °C 30.3in /  1025.7hPa Calm     97% 0in /  0.0mm 14 W/m2
09:12 48.4 °F /  9.1 °C 47.5 °F /  8.6 °C 30.3in /  1025.7hPa Calm     97% 0in /  0.0mm 16 W/m2
09:17 48.4 °F /  9.1 °C 47.5 °F /  8.6 °C 30.3in /  1025.7hPa Calm     97% 0in /  0.0mm 16 W/m2
09:22 48.6 °F /  9.2 °C 47.7 °F /  8.7 °C 30.3in /  1025.7hPa Calm     97% 0in /  0.0mm 16 W/m2
09:27 48.6 °F /  9.2 °C 47.7 °F /  8.7 °C 30.3in /  1025.7hPa Calm     97% 0in /  0.0mm 16 W/m2
09:32 48.6 °F /  9.2 °C 47.7 °F /  8.7 °C 30.3in /  1025.7hPa Calm     97% 0in /  0.0mm 19 W/m2
09:37 48.7 °F /  9.3 °C 47.8 °F /  8.8 °C 30.3in /  1025.7hPa East 0.9mph /  1.4km/h 2mph /  3.2km/h 97% 0in /  0.0mm 25 W/m2
09:42 48.7 °F /  9.3 °C 47.8 °F /  8.8 °C 30.3in /  1025.7hPa Calm   2mph /  3.2km/h 97% 0in /  0.0mm 28 W/m2
09:47 48.9 °F /  9.4 °C 48 °F /  8.9 °C 30.3in /  1025.7hPa East 0.9mph /  1.4km/h 2mph /  3.2km/h 97% 0in /  0.0mm 30 W/m2
09:52 48.9 °F /  9.4 °C 48 °F /  8.9 °C 30.3in /  1025.7hPa East 0.9mph /  1.4km/h 2mph /  3.2km/h 97% 0in /  0.0mm 33 W/m2
09:57 48.9 °F /  9.4 °C 48 °F /  8.9 °C 30.3in /  1026.1hPa ESE 2mph /  3.2km/h 2mph /  3.2km/h 97% 0in /  0.0mm 33 W/m2
10:02 49.1 °F /  9.5 °C 48.2 °F /  9 °C 30.3in /  1026.1hPa East 2mph /  3.2km/h 3mph /  4.8km/h 97% 0in /  0.0mm 37 W/m2
10:07 48.9 °F /  9.4 °C 48 °F /  8.9 °C 30.3in /  1026.1hPa East 0.9mph /  1.4km/h 2mph /  3.2km/h 97% 0in /  0.0mm 46 W/m2
10:12 49.1 °F /  9.5 °C 48.2 °F /  9 °C 30.3in /  1026.1hPa ESE 0.9mph /  1.4km/h 3mph /  4.8km/h 97% 0in /  0.0mm 49 W/m2
10:17 49.1 °F /  9.5 °C 48.2 °F /  9 °C 30.3in /  1026.1hPa ESE 2mph /  3.2km/h 2mph /  3.2km/h 97% 0in /  0.0mm 54 W/m2
10:22 49.1 °F /  9.5 °C 48 °F /  8.9 °C 30.3in /  1025.7hPa ESE 2mph /  3.2km/h 3mph /  4.8km/h 96% 0in /  0.0mm 56 W/m2
10:27 49.1 °F /  9.5 °C 48 °F /  8.9 °C 30.3in /  1025.7hPa East 2.9mph /  4.7km/h 3mph /  4.8km/h 96% 0in /  0.0mm 58 W/m2
10:32 49.3 °F /  9.6 °C 48.2 °F /  9 °C 30.3in /  1025.7hPa East 2mph /  3.2km/h 3mph /  4.8km/h 96% 0in /  0.0mm 56 W/m2
10:37 49.3 °F /  9.6 °C 48.2 °F /  9 °C 30.3in /  1025.7hPa East 2mph /  3.2km/h 3mph /  4.8km/h 96% 0in /  0.0mm 56 W/m2
10:42 49.5 °F /  9.7 °C 48.4 °F /  9.1 °C 30.3in /  1025.7hPa ESE 2mph /  3.2km/h 3mph /  4.8km/h 96% 0in /  0.0mm 63 W/m2
10:47 49.5 °F /  9.7 °C 48.4 °F /  9.1 °C 30.3in /  1026.1hPa ESE 2mph /  3.2km/h 2mph /  3.2km/h 96% 0in /  0.0mm 65 W/m2
10:52 49.6 °F /  9.8 °C 48.6 °F /  9.2 °C 30.3in /  1025.7hPa Calm   2mph /  3.2km/h 96% 0in /  0.0mm 72 W/m2
10:57 49.6 °F /  9.8 °C 48.6 °F /  9.2 °C 30.3in /  1026.1hPa ESE 0.9mph /  1.4km/h 2mph /  3.2km/h 96% 0in /  0.0mm 63 W/m2
11:02 49.8 °F /  9.9 °C 48.7 °F /  9.3 °C 30.3in /  1025.7hPa ESE 0.9mph /  1.4km/h 3mph /  4.8km/h 96% 0in /  0.0mm 58 W/m2
11:07 49.8 °F /  9.9 °C 48.7 °F /  9.3 °C 30.3in /  1025.7hPa Calm   2mph /  3.2km/h 96% 0in /  0.0mm 56 W/m2
11:12 50 °F /  10 °C 48.9 °F /  9.4 °C 30.3in /  1025.7hPa Calm   3mph /  4.8km/h 96% 0in /  0.0mm 67 W/m2
11:17 50.2 °F /  10.1 °C 49.1 °F /  9.5 °C 30.3in /  1025.7hPa ESE 0.9mph /  1.4km/h 2mph /  3.2km/h 96% 0in /  0.0mm 67 W/m2
11:22 50.2 °F /  10.1 °C 49.1 °F /  9.5 °C 30.3in /  1025.7hPa Calm   2mph /  3.2km/h 96% 0in /  0.0mm 58 W/m2
11:27 50.4 °F /  10.2 °C 49.3 °F /  9.6 °C 30.3in /  1025.7hPa Calm   1mph /  1.6km/h 96% 0in /  0.0mm 63 W/m2
11:32 50.5 °F /  10.3 °C 49.5 °F /  9.7 °C 30.3in /  1025.7hPa ESE 0.9mph /  1.4km/h 2mph /  3.2km/h 96% 0in /  0.0mm 83 W/m2
11:37 50.5 °F /  10.3 °C 49.5 °F /  9.7 °C 30.3in /  1025.7hPa ESE 0.9mph /  1.4km/h 1mph /  1.6km/h 96% 0in /  0.0mm 79 W/m2
11:42 50.7 °F /  10.4 °C 49.3 °F /  9.6 °C 30.3in /  1025.7hPa ESE 2mph /  3.2km/h 3mph /  4.8km/h 95% 0in /  0.0mm 63 W/m2
11:47 50.7 °F /  10.4 °C 49.3 °F /  9.6 °C 30.3in /  1025.7hPa Calm   2mph /  3.2km/h 95% 0in /  0.0mm 70 W/m2
11:52 50.9 °F /  10.5 °C 49.5 °F /  9.7 °C 30.3in /  1025.7hPa Calm   3mph /  4.8km/h 95% 0in /  0.0mm 86 W/m2
11:58 51.1 °F /  10.6 °C 49.6 °F /  9.8 °C 30.3in /  1025.7hPa ESE 0.9mph /  1.4km/h 2mph /  3.2km/h 95% 0in /  0.0mm 102 W/m2
12:03 51.3 °F /  10.7 °C 49.8 °F /  9.9 °C 30.3in /  1025.7hPa Calm     95% 0in /  0.0mm 95 W/m2
12:08 51.4 °F /  10.8 °C 50 °F /  10 °C 30.3in /  1025.7hPa Calm     95% 0in /  0.0mm 100 W/m2
12:13 51.6 °F /  10.9 °C 50 °F /  10 °C 30.3in /  1025.7hPa Calm   2mph /  3.2km/h 94% 0in /  0.0mm 102 W/m2
12:18 51.8 °F /  11 °C 50.2 °F /  10.1 °C 30.3in /  1025.7hPa Calm   2mph /  3.2km/h 94% 0in /  0.0mm 97 W/m2
12:23 52 °F /  11.1 °C 50.4 °F /  10.2 °C 30.3in /  1025.7hPa East 0.9mph /  1.4km/h 2mph /  3.2km/h 94% 0in /  0.0mm 81 W/m2
12:28 52.2 °F /  11.2 °C 50.5 °F /  10.3 °C 30.3in /  1025.7hPa East 0.9mph /  1.4km/h 1mph /  1.6km/h 94% 0in /  0.0mm 97 W/m2
12:33 52.3 °F /  11.3 °C 50.7 °F /  10.4 °C 30.3in /  1025.7hPa Calm   2mph /  3.2km/h 94% 0in /  0.0mm 88 W/m2
12:38 52.5 °F /  11.4 °C 50.5 °F /  10.3 °C 30.3in /  1025.7hPa Calm   2mph /  3.2km/h 93% 0in /  0.0mm 113 W/m2
12:43 52.5 °F /  11.4 °C 50.5 °F /  10.3 °C 30.3in /  1025.7hPa Calm     93% 0in /  0.0mm 120 W/m2
12:48 52.9 °F /  11.6 °C 50.9 °F /  10.5 °C 30.3in /  1025.7hPa NE 0.9mph /  1.4km/h 2mph /  3.2km/h 93% 0in /  0.0mm 113 W/m2
12:53 53.1 °F /  11.7 °C 51.1 °F /  10.6 °C 30.3in /  1025.7hPa Calm   1mph /  1.6km/h 93% 0in /  0.0mm 102 W/m2
12:58 53.1 °F /  11.7 °C 50.7 °F /  10.4 °C 30.3in /  1025.7hPa ENE 0.9mph /  1.4km/h 3mph /  4.8km/h 92% 0in /  0.0mm 90 W/m2
13:03 53.1 °F /  11.7 °C 50.7 °F /  10.4 °C 30.3in /  1025.7hPa Calm   1mph /  1.6km/h 92% 0in /  0.0mm 109 W/m2
13:08 53.2 °F /  11.8 °C 50.9 °F /  10.5 °C 30.3in /  1025.7hPa SE 2mph /  3.2km/h 2mph /  3.2km/h 92% 0in /  0.0mm 120 W/m2
13:13 53.2 °F /  11.8 °C 50.9 °F /  10.5 °C 30.3in /  1025.7hPa ESE 0.9mph /  1.4km/h 1mph /  1.6km/h 92% 0in /  0.0mm 125 W/m2
13:18 53.2 °F /  11.8 °C 50.9 °F /  10.5 °C 30.3in /  1025.4hPa ESE 0.9mph /  1.4km/h 3mph /  4.8km/h 92% 0in /  0.0mm 118 W/m2
13:23 53.2 °F /  11.8 °C 50.9 °F /  10.5 °C 30.3in /  1025.4hPa ESE 0.9mph /  1.4km/h 2mph /  3.2km/h 92% 0in /  0.0mm 120 W/m2
13:28 53.4 °F /  11.9 °C 50.9 °F /  10.5 °C 30.3in /  1025.4hPa ENE 0.9mph /  1.4km/h 3mph /  4.8km/h 91% 0in /  0.0mm 141 W/m2
13:33 53.4 °F /  11.9 °C 50.9 °F /  10.5 °C 30.3in /  1025.4hPa ESE 0.9mph /  1.4km/h 3mph /  4.8km/h 91% 0in /  0.0mm 139 W/m2
13:38 53.6 °F /  12 °C 51.1 °F /  10.6 °C 30.3in /  1025.4hPa Calm   2mph /  3.2km/h 91% 0in /  0.0mm 153 W/m2
13:43 53.8 °F /  12.1 °C 51.3 °F /  10.7 °C 30.3in /  1025.4hPa Calm   3mph /  4.8km/h 91% 0in /  0.0mm 160 W/m2
13:48 54 °F /  12.2 °C 51.4 °F /  10.8 °C 30.3in /  1025.1hPa Calm   2mph /  3.2km/h 91% 0in /  0.0mm 144 W/m2
13:53 54.1 °F /  12.3 °C 51.3 °F /  10.7 °C 30.3in /  1025.1hPa ESE 2mph /  3.2km/h 2mph /  3.2km/h 90% 0in /  0.0mm 134 W/m2
13:58 54.1 °F /  12.3 °C 51.3 °F /  10.7 °C 30.3in /  1025.1hPa East 0.9mph /  1.4km/h 2mph /  3.2km/h 90% 0in /  0.0mm 142 W/m2
14:03 54.3 °F /  12.4 °C 51.4 °F /  10.8 °C 30.3in /  1025.1hPa East 0.9mph /  1.4km/h 2mph /  3.2km/h 90% 0in /  0.0mm 146 W/m2
14:08 54.3 °F /  12.4 °C 51.4 °F /  10.8 °C 30.3in /  1025.1hPa East 2mph /  3.2km/h 3mph /  4.8km/h 90% 0in /  0.0mm 163 W/m2
14:13 54.7 °F /  12.6 °C 51.8 °F /  11 °C 30.3in /  1024.7hPa East 2.9mph /  4.7km/h 4mph /  6.4km/h 90% 0in /  0.0mm 151 W/m2
14:18 54.9 °F /  12.7 °C 51.6 °F /  10.9 °C 30.3in /  1024.7hPa East 2mph /  3.2km/h 3mph /  4.8km/h 89% 0in /  0.0mm 160 W/m2
14:23 54.9 °F /  12.7 °C 51.6 °F /  10.9 °C 30.3in /  1024.7hPa East 0.9mph /  1.4km/h 3mph /  4.8km/h 89% 0in /  0.0mm 171 W/m2
14:28 55 °F /  12.8 °C 51.6 °F /  10.9 °C 30.3in /  1024.7hPa East 2.9mph /  4.7km/h 3mph /  4.8km/h 88% 0in /  0.0mm 183 W/m2
14:33 55 °F /  12.8 °C 51.6 °F /  10.9 °C 30.3in /  1024.7hPa NE 2mph /  3.2km/h 4mph /  6.4km/h 88% 0in /  0.0mm 169 W/m2
14:38 55.2 °F /  12.9 °C 51.4 °F /  10.8 °C 30.3in /  1024.4hPa ENE 2mph /  3.2km/h 3mph /  4.8km/h 87% 0in /  0.0mm 176 W/m2
14:43 55.2 °F /  12.9 °C 51.4 °F /  10.8 °C 30.3in /  1024.4hPa East 2mph /  3.2km/h 3mph /  4.8km/h 87% 0in /  0.0mm 181 W/m2
14:48 55.4 °F /  13 °C 51.6 °F /  10.9 °C 30.3in /  1024.4hPa NE 0.9mph /  1.4km/h 1mph /  1.6km/h 87% 0in /  0.0mm 176 W/m2
14:53 55.6 °F /  13.1 °C 51.8 °F /  11 °C 30.3in /  1024.4hPa Calm   2mph /  3.2km/h 87% 0in /  0.0mm 167 W/m2
14:58 55.8 °F /  13.2 °C 51.6 °F /  10.9 °C 30.3in /  1024.4hPa Calm   3mph /  4.8km/h 86% 0in /  0.0mm 200 W/m2
15:03 55.8 °F /  13.2 °C 51.6 °F /  10.9 °C 30.2in /  1024.0hPa NE 2mph /  3.2km/h 3mph /  4.8km/h 86% 0in /  0.0mm 128 W/m2
15:08 55.9 °F /  13.3 °C 51.8 °F /  11 °C 30.2in /  1024.0hPa NE 0.9mph /  1.4km/h 3mph /  4.8km/h 86% 0in /  0.0mm 125 W/m2
15:13 56.1 °F /  13.4 °C 51.6 °F /  10.9 °C 30.2in /  1024.0hPa Calm   4mph /  6.4km/h 85% 0in /  0.0mm 142 W/m2
15:18 56.1 °F /  13.4 °C 51.6 °F /  10.9 °C 30.2in /  1024.0hPa ESE 2mph /  3.2km/h 2mph /  3.2km/h 85% 0in /  0.0mm 123 W/m2
15:23 56.5 °F /  13.6 °C 52 °F /  11.1 °C 30.2in /  1024.0hPa ESE 0.9mph /  1.4km/h 4mph /  6.4km/h 85% 0in /  0.0mm 135 W/m2
15:28 56.7 °F /  13.7 °C 52.2 °F /  11.2 °C 30.2in /  1024.0hPa Calm   2mph /  3.2km/h 85% 0in /  0.0mm 148 W/m2
15:33 56.8 °F /  13.8 °C 52.3 °F /  11.3 °C 30.2in /  1024.0hPa NE 2mph /  3.2km/h 4mph /  6.4km/h 85% 0in /  0.0mm 146 W/m2
15:38 56.8 °F /  13.8 °C 52 °F /  11.1 °C 30.2in /  1024.0hPa ENE 2.9mph /  4.7km/h 4mph /  6.4km/h 84% 0in /  0.0mm 134 W/m2
15:43 57 °F /  13.9 °C 52.2 °F /  11.2 °C 30.2in /  1024.0hPa Calm   1mph /  1.6km/h 84% 0in /  0.0mm 141 W/m2
15:48 57 °F /  13.9 °C 52 °F /  11.1 °C 30.2in /  1024.0hPa East 0.9mph /  1.4km/h 3mph /  4.8km/h 83% 0in /  0.0mm 142 W/m2
15:53 56.8 °F /  13.8 °C 51.8 °F /  11 °C 30.2in /  1024.0hPa Calm   2mph /  3.2km/h 83% 0in /  0.0mm 128 W/m2
15:58 56.8 °F /  13.8 °C 51.8 °F /  11 °C 30.2in /  1024.0hPa Calm   2mph /  3.2km/h 83% 0in /  0.0mm 121 W/m2
16:03 56.8 °F /  13.8 °C 51.8 °F /  11 °C 30.2in /  1023.7hPa ENE 0.9mph /  1.4km/h 3mph /  4.8km/h 83% 0in /  0.0mm 123 W/m2
16:08 56.7 °F /  13.7 °C 51.6 °F /  10.9 °C 30.2in /  1023.7hPa ENE 0.9mph /  1.4km/h 2mph /  3.2km/h 83% 0in /  0.0mm 118 W/m2
16:13 56.7 °F /  13.7 °C 51.8 °F /  11 °C 30.2in /  1023.7hPa NE 0.9mph /  1.4km/h 2mph /  3.2km/h 84% 0in /  0.0mm 76 W/m2
16:18 56.7 °F /  13.7 °C 51.6 °F /  10.9 °C 30.2in /  1023.7hPa ENE 0.9mph /  1.4km/h 3mph /  4.8km/h 83% 0in /  0.0mm 79 W/m2
16:23 56.7 °F /  13.7 °C 51.8 °F /  11 °C 30.2in /  1023.7hPa ENE 2.9mph /  4.7km/h 4mph /  6.4km/h 84% 0in /  0.0mm 69 W/m2
16:28 56.7 °F /  13.7 °C 51.6 °F /  10.9 °C 30.2in /  1023.7hPa Calm   4mph /  6.4km/h 83% 0in /  0.0mm 58 W/m2
16:33 56.5 °F /  13.6 °C 51.4 °F /  10.8 °C 30.2in /  1023.4hPa ENE 0.9mph /  1.4km/h 2mph /  3.2km/h 83% 0in /  0.0mm 49 W/m2
16:38 56.5 °F /  13.6 °C 51.4 °F /  10.8 °C 30.2in /  1023.4hPa ENE 2mph /  3.2km/h 4mph /  6.4km/h 83% 0in /  0.0mm 46 W/m2
16:43 56.3 °F /  13.5 °C 51.4 °F /  10.8 °C 30.2in /  1023.4hPa Calm   1mph /  1.6km/h 84% 0in /  0.0mm 44 W/m2
16:48 56.1 °F /  13.4 °C 51.4 °F /  10.8 °C 30.2in /  1023.4hPa Calm     84% 0in /  0.0mm 42 W/m2
16:53 56.1 °F /  13.4 °C 51.4 °F /  10.8 °C 30.2in /  1023.4hPa Calm     84% 0in /  0.0mm 42 W/m2
16:58 55.9 °F /  13.3 °C 51.3 °F /  10.7 °C 30.2in /  1023.4hPa Calm   1mph /  1.6km/h 84% 0in /  0.0mm 40 W/m2
17:03 55.9 °F /  13.3 °C 51.4 °F /  10.8 °C 30.2in /  1023.4hPa ESE 4mph /  6.4km/h 4mph /  6.4km/h 85% 0in /  0.0mm 42 W/m2
17:08 55.8 °F /  13.2 °C 51.3 °F /  10.7 °C 30.2in /  1023.4hPa ENE 0.9mph /  1.4km/h 2mph /  3.2km/h 85% 0in /  0.0mm 40 W/m2
17:13 55.8 °F /  13.2 °C 51.3 °F /  10.7 °C 30.2in /  1023.4hPa ENE 2mph /  3.2km/h 2mph /  3.2km/h 85% 0in /  0.0mm 35 W/m2
17:18 55.6 °F /  13.1 °C 51.1 °F /  10.6 °C 30.2in /  1023.4hPa ENE 0.9mph /  1.4km/h 3mph /  4.8km/h 85% 0in /  0.0mm 35 W/m2
17:23 55.6 °F /  13.1 °C 51.1 °F /  10.6 °C 30.2in /  1023.4hPa ESE 0.9mph /  1.4km/h 2mph /  3.2km/h 85% 0in /  0.0mm 33 W/m2
17:28 55.4 °F /  13 °C 51.3 °F /  10.7 °C 30.2in /  1023.4hPa Calm     86% 0in /  0.0mm 33 W/m2
17:33 55.2 °F /  12.9 °C 51.1 °F /  10.6 °C 30.2in /  1023.4hPa East 0.9mph /  1.4km/h 2mph /  3.2km/h 86% 0in /  0.0mm 32 W/m2
17:38 55 °F /  12.8 °C 50.9 °F /  10.5 °C 30.2in /  1023.4hPa Calm   1mph /  1.6km/h 86% 0in /  0.0mm 30 W/m2
17:43 54.9 °F /  12.7 °C 50.7 °F /  10.4 °C 30.2in /  1023.0hPa Calm   1mph /  1.6km/h 86% 0in /  0.0mm 26 W/m2
17:48 54.7 °F /  12.6 °C 50.9 °F /  10.5 °C 30.2in /  1023.4hPa SE 0.9mph /  1.4km/h 2mph /  3.2km/h 87% 0in /  0.0mm 23 W/m2
17:53 54.3 °F /  12.4 °C 50.5 °F /  10.3 °C 30.2in /  1023.4hPa Calm   2mph /  3.2km/h 87% 0in /  0.0mm 21 W/m2
17:58 54.1 °F /  12.3 °C 50.4 °F /  10.2 °C 30.2in /  1023.4hPa Calm   1mph /  1.6km/h 87% 0in /  0.0mm 19 W/m2
18:03 54 °F /  12.2 °C 50.5 °F /  10.3 °C 30.2in /  1023.4hPa Calm     88% 0in /  0.0mm 16 W/m2
18:08 53.8 °F /  12.1 °C 50.4 °F /  10.2 °C 30.2in /  1023.4hPa Calm   1mph /  1.6km/h 88% 0in /  0.0mm 12 W/m2
18:13 53.4 °F /  11.9 °C 50.2 °F /  10.1 °C 30.2in /  1023.4hPa Calm     89% 0in /  0.0mm 9 W/m2
18:18 53.2 °F /  11.8 °C 50 °F /  10 °C 30.2in /  1023.4hPa Calm     89% 0in /  0.0mm 5 W/m2
18:23 52.9 °F /  11.6 °C 49.6 °F /  9.8 °C 30.2in /  1023.4hPa Calm   1mph /  1.6km/h 89% 0in /  0.0mm 0 W/m2
18:28 52.5 °F /  11.4 °C 49.6 °F /  9.8 °C 30.2in /  1023.4hPa Calm     90% 0in /  0.0mm 0 W/m2
18:33 52.3 °F /  11.3 °C 49.5 °F /  9.7 °C 30.2in /  1023.4hPa Calm     90% 0in /  0.0mm 0 W/m2
18:38 52.2 °F /  11.2 °C 49.6 °F /  9.8 °C 30.2in /  1023.4hPa Calm     91% 0in /  0.0mm 0 W/m2
18:43 52 °F /  11.1 °C 49.5 °F /  9.7 °C 30.2in /  1023.4hPa Calm     91% 0in /  0.0mm 0 W/m2
18:48 51.6 °F /  10.9 °C 49.1 °F /  9.5 °C 30.2in /  1023.4hPa Calm     91% 0in /  0.0mm 0 W/m2
18:53 51.4 °F /  10.8 °C 48.9 °F /  9.4 °C 30.2in /  1023.4hPa Calm     91% 0in /  0.0mm 0 W/m2
18:58 51.3 °F /  10.7 °C 48.7 °F /  9.3 °C 30.2in /  1023.4hPa Calm     91% 0in /  0.0mm 0 W/m2
19:03 50.9 °F /  10.5 °C 48.7 °F /  9.3 °C 30.2in /  1023.4hPa Calm     92% 0in /  0.0mm 0 W/m2
19:08 50.7 °F /  10.4 °C 48.6 °F /  9.2 °C 30.2in /  1023.4hPa Calm     92% 0in /  0.0mm 0 W/m2
19:13 50.7 °F /  10.4 °C 48.6 °F /  9.2 °C 30.2in /  1023.4hPa Calm     92% 0in /  0.0mm 0 W/m2
19:18 50.5 °F /  10.3 °C 48.6 °F /  9.2 °C 30.2in /  1023.4hPa Calm     93% 0in /  0.0mm 0 W/m2
19:23 50.4 °F /  10.2 °C 48.4 °F /  9.1 °C 30.2in /  1023.4hPa Calm     93% 0in /  0.0mm 0 W/m2
19:28 50.2 °F /  10.1 °C 48.2 °F /  9 °C 30.2in /  1023.4hPa Calm     93% 0in /  0.0mm 0 W/m2
19:33 50.2 °F /  10.1 °C 48.2 °F /  9 °C 30.2in /  1023.4hPa Calm     93% 0in /  0.0mm 0 W/m2
19:38 49.8 °F /  9.9 °C 47.8 °F /  8.8 °C 30.2in /  1023.4hPa Calm     93% 0in /  0.0mm 0 W/m2
19:43 49.6 °F /  9.8 °C 47.7 °F /  8.7 °C 30.2in /  1023.4hPa Calm     93% 0in /  0.0mm 0 W/m2
19:48 49.6 °F /  9.8 °C 48 °F /  8.9 °C 30.2in /  1023.4hPa Calm     94% 0in /  0.0mm 0 W/m2
19:53 49.6 °F /  9.8 °C 48 °F /  8.9 °C 30.2in /  1023.0hPa Calm   2mph /  3.2km/h 94% 0in /  0.0mm 0 W/m2
19:58 49.6 °F /  9.8 °C 48 °F /  8.9 °C 30.2in /  1023.4hPa Calm   1mph /  1.6km/h 94% 0in /  0.0mm 0 W/m2
20:03 49.6 °F /  9.8 °C 48 °F /  8.9 °C 30.2in /  1023.4hPa Calm   2mph /  3.2km/h 94% 0in /  0.0mm 0 W/m2
20:08 49.5 °F /  9.7 °C 47.8 °F /  8.8 °C 30.2in /  1023.4hPa Calm     94% 0in /  0.0mm 0 W/m2
20:13 49.3 °F /  9.6 °C 47.7 °F /  8.7 °C 30.2in /  1023.0hPa Calm     94% 0in /  0.0mm 0 W/m2
20:18 49.1 °F /  9.5 °C 47.5 °F /  8.6 °C 30.2in /  1023.0hPa Calm     94% 0in /  0.0mm 0 W/m2
20:23 48.9 °F /  9.4 °C 47.3 °F /  8.5 °C 30.2in /  1023.0hPa Calm     94% 0in /  0.0mm 0 W/m2
20:28 48.7 °F /  9.3 °C 47.1 °F /  8.4 °C 30.2in /  1023.0hPa Calm     94% 0in /  0.0mm 0 W/m2
20:33 48.7 °F /  9.3 °C 47.1 °F /  8.4 °C 30.2in /  1023.0hPa SSE 0.9mph /  1.4km/h 1mph /  1.6km/h 94% 0in /  0.0mm 0 W/m2
20:38 48.6 °F /  9.2 °C 46.9 °F /  8.3 °C 30.2in /  1023.0hPa Calm     94% 0in /  0.0mm 0 W/m2
20:43 48.4 °F /  9.1 °C 46.8 °F /  8.2 °C 30.2in /  1023.0hPa Calm   1mph /  1.6km/h 94% 0in /  0.0mm 0 W/m2
20:49 48.4 °F /  9.1 °C 46.9 °F /  8.3 °C 30.2in /  1023.0hPa Calm     95% 0in /  0.0mm 0 W/m2
20:54 48.4 °F /  9.1 °C 46.9 °F /  8.3 °C 30.2in /  1022.7hPa Calm   1mph /  1.6km/h 95% 0in /  0.0mm 0 W/m2
20:59 48.2 °F /  9 °C 46.8 °F /  8.2 °C 30.2in /  1022.7hPa Calm     95% 0in /  0.0mm 0 W/m2
21:04 48 °F /  8.9 °C 46.6 °F /  8.1 °C 30.2in /  1022.7hPa Calm     95% 0in /  0.0mm 0 W/m2
21:09 47.8 °F /  8.8 °C 46.4 °F /  8 °C 30.2in /  1022.7hPa Calm     95% 0in /  0.0mm 0 W/m2
21:14 47.7 °F /  8.7 °C 46.2 °F /  7.9 °C 30.2in /  1022.7hPa Calm     95% 0in /  0.0mm 0 W/m2
21:19 47.5 °F /  8.6 °C 46 °F /  7.8 °C 30.2in /  1022.7hPa Calm     95% 0in /  0.0mm 0 W/m2
21:24 47.5 °F /  8.6 °C 46 °F /  7.8 °C 30.2in /  1022.7hPa Calm     95% 0in /  0.0mm 0 W/m2
21:29 47.3 °F /  8.5 °C 45.9 °F /  7.7 °C 30.2in /  1022.7hPa Calm     95% 0in /  0.0mm 0 W/m2
21:34 47.1 °F /  8.4 °C 45.7 °F /  7.6 °C 30.2in /  1022.7hPa Calm     95% 0in /  0.0mm 0 W/m2
21:39 47.1 °F /  8.4 °C 45.7 °F /  7.6 °C 30.2in /  1022.7hPa Calm     95% 0in /  0.0mm 0 W/m2
21:44 47.1 °F /  8.4 °C 45.7 °F /  7.6 °C 30.2in /  1022.7hPa Calm     95% 0in /  0.0mm 0 W/m2
21:49 46.9 °F /  8.3 °C 45.5 °F /  7.5 °C 30.2in /  1022.7hPa Calm     95% 0in /  0.0mm 0 W/m2
21:54 46.9 °F /  8.3 °C 45.5 °F /  7.5 °C 30.2in /  1022.7hPa Calm     95% 0in /  0.0mm 0 W/m2
21:59 46.9 °F /  8.3 °C 45.5 °F /  7.5 °C 30.2in /  1022.7hPa Calm     95% 0in /  0.0mm 0 W/m2
22:04 46.9 °F /  8.3 °C 45.5 °F /  7.5 °C 30.2in /  1022.4hPa Calm     95% 0in /  0.0mm 0 W/m2
22:09 46.8 °F /  8.2 °C 45.3 °F /  7.4 °C 30.2in /  1022.4hPa Calm     95% 0in /  0.0mm 0 W/m2
22:14 46.8 °F /  8.2 °C 45.7 °F /  7.6 °C 30.2in /  1022.4hPa Calm     96% 0in /  0.0mm 0 W/m2
22:19 46.8 °F /  8.2 °C 45.7 °F /  7.6 °C 30.2in /  1022.4hPa Calm     96% 0in /  0.0mm 0 W/m2
22:24 46.8 °F /  8.2 °C 45.7 °F /  7.6 °C 30.2in /  1022.4hPa Calm     96% 0in /  0.0mm 0 W/m2
22:29 46.6 °F /  8.1 °C 45.5 °F /  7.5 °C 30.2in /  1022.4hPa Calm     96% 0in /  0.0mm 0 W/m2
22:34 46.6 °F /  8.1 °C 45.1 °F /  7.3 °C 30.2in /  1022.4hPa Calm     95% 0in /  0.0mm 0 W/m2
22:39 46.4 °F /  8 °C 45.3 °F /  7.4 °C 30.2in /  1022.4hPa Calm     96% 0in /  0.0mm 0 W/m2
22:44 46.2 °F /  7.9 °C 45.1 °F /  7.3 °C 30.2in /  1022.4hPa Calm     96% 0in /  0.0mm 0 W/m2
22:49 46.2 °F /  7.9 °C 45.1 °F /  7.3 °C 30.2in /  1022.4hPa Calm     96% 0in /  0.0mm 0 W/m2
22:54 46.2 °F /  7.9 °C 45.1 °F /  7.3 °C 30.2in /  1022.4hPa Calm     96% 0in /  0.0mm 0 W/m2
22:59 46.4 °F /  8 °C 45.3 °F /  7.4 °C 30.2in /  1022.4hPa Calm     96% 0in /  0.0mm 0 W/m2
23:04 46.6 °F /  8.1 °C 45.5 °F /  7.5 °C 30.2in /  1022.4hPa Calm     96% 0in /  0.0mm 0 W/m2
23:09 46.8 °F /  8.2 °C 45.7 °F /  7.6 °C 30.2in /  1022.4hPa Calm     96% 0in /  0.0mm 0 W/m2
23:14 46.9 °F /  8.3 °C 45.9 °F /  7.7 °C 30.2in /  1022.4hPa Calm     96% 0in /  0.0mm 0 W/m2
23:19 46.9 °F /  8.3 °C 45.9 °F /  7.7 °C 30.2in /  1022.4hPa Calm     96% 0in /  0.0mm 0 W/m2
23:24 46.8 °F /  8.2 °C 45.7 °F /  7.6 °C 30.2in /  1022.4hPa Calm     96% 0in /  0.0mm 0 W/m2
23:29 46.8 °F /  8.2 °C 45.7 °F /  7.6 °C 30.2in /  1022.4hPa Calm     96% 0in /  0.0mm 0 W/m2
23:34 46.9 °F /  8.3 °C 45.9 °F /  7.7 °C 30.2in /  1022.4hPa Calm     96% 0in /  0.0mm 0 W/m2
23:39 47.1 °F /  8.4 °C 46 °F /  7.8 °C 30.2in /  1022.4hPa Calm     96% 0in /  0.0mm 0 W/m2
23:44 47.3 °F /  8.5 °C 46.2 °F /  7.9 °C 30.2in /  1022.4hPa Calm     96% 0in /  0.0mm 0 W/m2
23:49 47.5 °F /  8.6 °C 46.4 °F /  8 °C 30.2in /  1022.4hPa Calm     96% 0in /  0.0mm 0 W/m2
23:54 47.5 °F /  8.6 °C 46.4 °F /  8 °C 30.2in /  1022.4hPa Calm     96% 0in /  0.0mm 0 W/m2
23:59 47.5 °F /  8.6 °C 46.4 °F /  8 °C 30.2in /  1022.0hPa Calm   3mph /  4.8km/h 96% 0in /  0.0mm 0 W/m2
Juneau County Weather
Compliments of Weather Underground - 4 mb